sensor_id;sensor_type;location;lat;lon;timestamp;temperature;humidity
33863;DHT22;20158;51.436;-2.742;2023-07-13T00:01:25;21.50;56.80
33863;DHT22;20158;51.436;-2.742;2023-07-13T00:04:01;21.50;57.20
33863;DHT22;20158;51.436;-2.742;2023-07-13T00:06:47;21.40;56.90
33863;DHT22;20158;51.436;-2.742;2023-07-13T00:09:14;21.40;57.00
33863;DHT22;20158;51.436;-2.742;2023-07-13T00:11:51;21.30;56.90
33863;DHT22;20158;51.436;-2.742;2023-07-13T00:14:25;21.30;57.10
33863;DHT22;20158;51.436;-2.742;2023-07-13T00:16:52;21.30;57.20
33863;DHT22;20158;51.436;-2.742;2023-07-13T00:19:18;21.30;57.30
33863;DHT22;20158;51.436;-2.742;2023-07-13T00:21:45;21.20;57.30
33863;DHT22;20158;51.436;-2.742;2023-07-13T00:24:13;21.20;57.40
33863;DHT22;20158;51.436;-2.742;2023-07-13T00:26:41;21.20;57.50
33863;DHT22;20158;51.436;-2.742;2023-07-13T00:29:12;21.20;57.60
33863;DHT22;20158;51.436;-2.742;2023-07-13T00:31:41;21.10;57.50
33863;DHT22;20158;51.436;-2.742;2023-07-13T00:34:08;21.10;57.60
33863;DHT22;20158;51.436;-2.742;2023-07-13T00:36:53;21.10;57.70
33863;DHT22;20158;51.436;-2.742;2023-07-13T00:39:29;21.10;57.70
33863;DHT22;20158;51.436;-2.742;2023-07-13T00:41:56;21.00;57.60
33863;DHT22;20158;51.436;-2.742;2023-07-13T00:44:26;21.00;57.70
33863;DHT22;20158;51.436;-2.742;2023-07-13T00:47:03;21.00;57.90
33863;DHT22;20158;51.436;-2.742;2023-07-13T00:49:39;21.00;57.90
33863;DHT22;20158;51.436;-2.742;2023-07-13T00:52:15;20.90;57.90
33863;DHT22;20158;51.436;-2.742;2023-07-13T00:54:46;20.90;57.90
33863;DHT22;20158;51.436;-2.742;2023-07-13T00:57:32;20.90;58.10
33863;DHT22;20158;51.436;-2.742;2023-07-13T01:00:07;20.90;58.20
33863;DHT22;20158;51.436;-2.742;2023-07-13T01:02:38;20.80;58.00
33863;DHT22;20158;51.436;-2.742;2023-07-13T01:05:26;20.80;58.10
33863;DHT22;20158;51.436;-2.742;2023-07-13T01:07:55;20.80;58.20
33863;DHT22;20158;51.436;-2.742;2023-07-13T01:10:37;20.70;58.10
33863;DHT22;20158;51.436;-2.742;2023-07-13T01:13:07;20.70;58.20
33863;DHT22;20158;51.436;-2.742;2023-07-13T01:15:45;20.70;58.30
33863;DHT22;20158;51.436;-2.742;2023-07-13T01:18:19;20.60;58.20
33863;DHT22;20158;51.436;-2.742;2023-07-13T01:20:55;20.60;58.30
33863;DHT22;20158;51.436;-2.742;2023-07-13T01:23:23;20.60;58.40
33863;DHT22;20158;51.436;-2.742;2023-07-13T01:25:51;20.60;58.50
33863;DHT22;20158;51.436;-2.742;2023-07-13T01:28:28;20.60;58.60
33863;DHT22;20158;51.436;-2.742;2023-07-13T01:30:58;20.50;58.50
33863;DHT22;20158;51.436;-2.742;2023-07-13T01:33:37;20.50;58.60
33863;DHT22;20158;51.436;-2.742;2023-07-13T01:36:10;20.50;58.70
33863;DHT22;20158;51.436;-2.742;2023-07-13T01:38:48;20.50;58.80
33863;DHT22;20158;51.436;-2.742;2023-07-13T01:41:20;20.40;58.60
33863;DHT22;20158;51.436;-2.742;2023-07-13T01:43:46;20.40;58.60
33863;DHT22;20158;51.436;-2.742;2023-07-13T01:46:19;20.40;58.70
33863;DHT22;20158;51.436;-2.742;2023-07-13T01:48:51;20.40;58.80
33863;DHT22;20158;51.436;-2.742;2023-07-13T01:51:19;20.40;58.90
33863;DHT22;20158;51.436;-2.742;2023-07-13T01:53:56;20.40;58.90
33863;DHT22;20158;51.436;-2.742;2023-07-13T01:56:36;20.30;58.90
33863;DHT22;20158;51.436;-2.742;2023-07-13T01:59:09;20.30;58.90
33863;DHT22;20158;51.436;-2.742;2023-07-13T02:01:57;20.30;58.90
33863;DHT22;20158;51.436;-2.742;2023-07-13T02:04:27;20.30;59.00
33863;DHT22;20158;51.436;-2.742;2023-07-13T02:07:05;20.30;59.20
33863;DHT22;20158;51.436;-2.742;2023-07-13T02:09:37;20.20;59.00
33863;DHT22;20158;51.436;-2.742;2023-07-13T02:12:09;20.20;59.10
33863;DHT22;20158;51.436;-2.742;2023-07-13T02:14:49;20.20;59.20
33863;DHT22;20158;51.436;-2.742;2023-07-13T02:17:28;20.10;59.10
33863;DHT22;20158;51.436;-2.742;2023-07-13T02:20:06;20.10;59.10
33863;DHT22;20158;51.436;-2.742;2023-07-13T02:22:33;20.10;59.20
33863;DHT22;20158;51.436;-2.742;2023-07-13T02:25:04;20.10;59.30
33863;DHT22;20158;51.436;-2.742;2023-07-13T02:27:34;20.00;59.20
33863;DHT22;20158;51.436;-2.742;2023-07-13T02:30:05;20.00;59.30
33863;DHT22;20158;51.436;-2.742;2023-07-13T02:32:37;20.00;59.50
33863;DHT22;20158;51.436;-2.742;2023-07-13T02:35:05;20.00;59.90
33863;DHT22;20158;51.436;-2.742;2023-07-13T02:37:46;19.90;59.50
33863;DHT22;20158;51.436;-2.742;2023-07-13T02:40:25;19.90;59.60
33863;DHT22;20158;51.436;-2.742;2023-07-13T02:42:51;19.90;59.70
33863;DHT22;20158;51.436;-2.742;2023-07-13T02:45:20;19.90;59.90
33863;DHT22;20158;51.436;-2.742;2023-07-13T02:48:08;19.80;59.80
33863;DHT22;20158;51.436;-2.742;2023-07-13T02:50:56;19.80;59.80
33863;DHT22;20158;51.436;-2.742;2023-07-13T02:53:41;19.80;59.80
33863;DHT22;20158;51.436;-2.742;2023-07-13T02:56:31;19.70;59.70
33863;DHT22;20158;51.436;-2.742;2023-07-13T02:59:01;19.70;59.80
33863;DHT22;20158;51.436;-2.742;2023-07-13T03:01:28;19.70;59.90
33863;DHT22;20158;51.436;-2.742;2023-07-13T03:03:55;19.70;60.00
33863;DHT22;20158;51.436;-2.742;2023-07-13T03:06:28;19.70;60.10
33863;DHT22;20158;51.436;-2.742;2023-07-13T03:09:02;19.70;60.20
33863;DHT22;20158;51.436;-2.742;2023-07-13T03:11:31;19.60;60.00
33863;DHT22;20158;51.436;-2.742;2023-07-13T03:14:20;19.60;60.20
33863;DHT22;20158;51.436;-2.742;2023-07-13T03:16:55;19.60;60.20
33863;DHT22;20158;51.436;-2.742;2023-07-13T03:19:28;19.50;60.10
33863;DHT22;20158;51.436;-2.742;2023-07-13T03:21:55;19.50;60.20
33863;DHT22;20158;51.436;-2.742;2023-07-13T03:24:22;19.50;60.30
33863;DHT22;20158;51.436;-2.742;2023-07-13T03:26:54;19.40;60.80
33863;DHT22;20158;51.436;-2.742;2023-07-13T03:29:22;19.40;60.30
33863;DHT22;20158;51.436;-2.742;2023-07-13T03:32:09;19.40;60.40
33863;DHT22;20158;51.436;-2.742;2023-07-13T03:34:49;19.30;60.30
33863;DHT22;20158;51.436;-2.742;2023-07-13T03:37:22;19.30;60.30
33863;DHT22;20158;51.436;-2.742;2023-07-13T03:39:49;19.30;60.30
33863;DHT22;20158;51.436;-2.742;2023-07-13T03:42:17;19.30;60.20
33863;DHT22;20158;51.436;-2.742;2023-07-13T03:44:52;19.20;60.10
33863;DHT22;20158;51.436;-2.742;2023-07-13T03:47:22;19.20;60.30
33863;DHT22;20158;51.436;-2.742;2023-07-13T03:49:51;19.20;60.40
33863;DHT22;20158;51.436;-2.742;2023-07-13T03:52:26;19.20;60.50
33863;DHT22;20158;51.436;-2.742;2023-07-13T03:55:02;19.20;60.50
33863;DHT22;20158;51.436;-2.742;2023-07-13T03:57:32;19.10;60.40
33863;DHT22;20158;51.436;-2.742;2023-07-13T04:00:17;19.10;60.50
33863;DHT22;20158;51.436;-2.742;2023-07-13T04:02:47;19.20;60.70
33863;DHT22;20158;51.436;-2.742;2023-07-13T04:05:34;19.10;60.60
33863;DHT22;20158;51.436;-2.742;2023-07-13T04:08:00;19.10;60.70
33863;DHT22;20158;51.436;-2.742;2023-07-13T04:10:38;19.10;60.70
33863;DHT22;20158;51.436;-2.742;2023-07-13T04:13:05;19.10;60.70
33863;DHT22;20158;51.436;-2.742;2023-07-13T04:15:32;19.20;60.90
33863;DHT22;20158;51.436;-2.742;2023-07-13T04:18:01;19.20;60.90
33863;DHT22;20158;51.436;-2.742;2023-07-13T04:20:33;19.10;60.80
33863;DHT22;20158;51.436;-2.742;2023-07-13T04:22:59;19.20;61.00
33863;DHT22;20158;51.436;-2.742;2023-07-13T04:25:25;19.10;60.90
33863;DHT22;20158;51.436;-2.742;2023-07-13T04:27:52;19.20;61.10
33863;DHT22;20158;51.436;-2.742;2023-07-13T04:30:25;19.20;61.10
33863;DHT22;20158;51.436;-2.742;2023-07-13T04:32:55;19.10;60.90
33863;DHT22;20158;51.436;-2.742;2023-07-13T04:35:21;19.20;61.20
33863;DHT22;20158;51.436;-2.742;2023-07-13T04:38:06;19.20;61.20
33863;DHT22;20158;51.436;-2.742;2023-07-13T04:40:34;19.20;61.20
33863;DHT22;20158;51.436;-2.742;2023-07-13T04:43:03;19.20;61.20
33863;DHT22;20158;51.436;-2.742;2023-07-13T04:45:31;19.20;61.30
33863;DHT22;20158;51.436;-2.742;2023-07-13T04:48:13;19.20;61.30
33863;DHT22;20158;51.436;-2.742;2023-07-13T04:50:39;19.20;61.20
33863;DHT22;20158;51.436;-2.742;2023-07-13T04:53:07;19.20;61.30
33863;DHT22;20158;51.436;-2.742;2023-07-13T04:55:34;19.20;61.30
33863;DHT22;20158;51.436;-2.742;2023-07-13T04:58:01;19.20;61.30
33863;DHT22;20158;51.436;-2.742;2023-07-13T05:00:29;19.20;61.30
33863;DHT22;20158;51.436;-2.742;2023-07-13T05:02:56;19.20;61.30
33863;DHT22;20158;51.436;-2.742;2023-07-13T05:05:23;19.20;61.30
33863;DHT22;20158;51.436;-2.742;2023-07-13T05:07:50;19.30;61.50
33863;DHT22;20158;51.436;-2.742;2023-07-13T05:10:16;19.30;61.50
33863;DHT22;20158;51.436;-2.742;2023-07-13T05:12:43;19.30;61.50
33863;DHT22;20158;51.436;-2.742;2023-07-13T05:15:10;19.30;61.50
33863;DHT22;20158;51.436;-2.742;2023-07-13T05:17:56;19.40;61.60
33863;DHT22;20158;51.436;-2.742;2023-07-13T05:20:22;19.40;61.50
33863;DHT22;20158;51.436;-2.742;2023-07-13T05:22:48;19.40;61.50
33863;DHT22;20158;51.436;-2.742;2023-07-13T05:25:14;19.40;61.50
33863;DHT22;20158;51.436;-2.742;2023-07-13T05:27:40;19.50;61.70
33863;DHT22;20158;51.436;-2.742;2023-07-13T05:30:07;19.50;62.20
33863;DHT22;20158;51.436;-2.742;2023-07-13T05:32:36;19.50;62.60
33863;DHT22;20158;51.436;-2.742;2023-07-13T05:35:05;19.60;63.20
33863;DHT22;20158;51.436;-2.742;2023-07-13T05:37:32;19.60;63.50
33863;DHT22;20158;51.436;-2.742;2023-07-13T05:39:58;19.60;63.70
33863;DHT22;20158;51.436;-2.742;2023-07-13T05:42:25;19.60;63.90
33863;DHT22;20158;51.436;-2.742;2023-07-13T05:44:51;19.70;64.20
33863;DHT22;20158;51.436;-2.742;2023-07-13T05:47:17;19.80;64.40
33863;DHT22;20158;51.436;-2.742;2023-07-13T05:49:43;19.80;64.40
33863;DHT22;20158;51.436;-2.742;2023-07-13T05:52:08;19.90;64.60
33863;DHT22;20158;51.436;-2.742;2023-07-13T05:54:35;20.00;64.70
33863;DHT22;20158;51.436;-2.742;2023-07-13T05:57:01;20.10;64.80
33863;DHT22;20158;51.436;-2.742;2023-07-13T05:59:27;20.20;64.80
33863;DHT22;20158;51.436;-2.742;2023-07-13T06:01:53;20.30;64.80
33863;DHT22;20158;51.436;-2.742;2023-07-13T06:04:19;20.40;64.80
33863;DHT22;20158;51.436;-2.742;2023-07-13T06:06:45;20.50;64.80
33863;DHT22;20158;51.436;-2.742;2023-07-13T06:09:12;20.50;64.70
33863;DHT22;20158;51.436;-2.742;2023-07-13T06:11:38;20.60;64.90
33863;DHT22;20158;51.436;-2.742;2023-07-13T06:14:04;20.70;64.90
33863;DHT22;20158;51.436;-2.742;2023-07-13T06:16:30;20.80;64.90
33863;DHT22;20158;51.436;-2.742;2023-07-13T06:18:56;20.90;64.90
33863;DHT22;20158;51.436;-2.742;2023-07-13T06:21:23;20.90;64.80
33863;DHT22;20158;51.436;-2.742;2023-07-13T06:23:50;21.00;64.80
33863;DHT22;20158;51.436;-2.742;2023-07-13T06:26:24;21.10;64.90
33863;DHT22;20158;51.436;-2.742;2023-07-13T06:28:52;21.20;64.80
33863;DHT22;20158;51.436;-2.742;2023-07-13T06:31:18;21.30;64.70
33863;DHT22;20158;51.436;-2.742;2023-07-13T06:33:44;21.30;64.60
33863;DHT22;20158;51.436;-2.742;2023-07-13T06:36:11;21.40;64.60
33863;DHT22;20158;51.436;-2.742;2023-07-13T06:38:37;21.50;64.60
33863;DHT22;20158;51.436;-2.742;2023-07-13T06:41:05;21.50;64.60
33863;DHT22;20158;51.436;-2.742;2023-07-13T06:43:32;21.50;64.60
33863;DHT22;20158;51.436;-2.742;2023-07-13T06:45:58;21.40;64.50
33863;DHT22;20158;51.436;-2.742;2023-07-13T06:48:24;21.40;64.50
33863;DHT22;20158;51.436;-2.742;2023-07-13T06:50:51;21.40;64.60
33863;DHT22;20158;51.436;-2.742;2023-07-13T06:53:21;21.40;64.60
33863;DHT22;20158;51.436;-2.742;2023-07-13T06:55:48;21.40;64.60
33863;DHT22;20158;51.436;-2.742;2023-07-13T06:58:15;21.30;64.50
33863;DHT22;20158;51.436;-2.742;2023-07-13T07:00:42;21.40;64.70
33863;DHT22;20158;51.436;-2.742;2023-07-13T07:03:08;21.40;64.70
33863;DHT22;20158;51.436;-2.742;2023-07-13T07:05:37;21.40;64.70
33863;DHT22;20158;51.436;-2.742;2023-07-13T07:08:04;21.30;64.50
33863;DHT22;20158;51.436;-2.742;2023-07-13T07:10:30;21.30;64.60
33863;DHT22;20158;51.436;-2.742;2023-07-13T07:12:57;21.30;64.60
33863;DHT22;20158;51.436;-2.742;2023-07-13T07:15:23;21.30;64.70
33863;DHT22;20158;51.436;-2.742;2023-07-13T07:17:49;21.30;64.70
33863;DHT22;20158;51.436;-2.742;2023-07-13T07:20:15;21.20;64.60
33863;DHT22;20158;51.436;-2.742;2023-07-13T07:22:41;21.20;64.60
33863;DHT22;20158;51.436;-2.742;2023-07-13T07:25:07;21.30;64.70
33863;DHT22;20158;51.436;-2.742;2023-07-13T07:27:34;21.30;64.80
33863;DHT22;20158;51.436;-2.742;2023-07-13T07:30:00;21.30;64.70
33863;DHT22;20158;51.436;-2.742;2023-07-13T07:32:29;21.30;64.60
33863;DHT22;20158;51.436;-2.742;2023-07-13T07:34:57;21.30;64.60
33863;DHT22;20158;51.436;-2.742;2023-07-13T07:37:23;21.40;64.70
33863;DHT22;20158;51.436;-2.742;2023-07-13T07:39:50;21.40;64.70
33863;DHT22;20158;51.436;-2.742;2023-07-13T07:42:16;21.30;64.50
33863;DHT22;20158;51.436;-2.742;2023-07-13T07:44:42;21.40;64.80
33863;DHT22;20158;51.436;-2.742;2023-07-13T07:47:11;21.40;64.90
33863;DHT22;20158;51.436;-2.742;2023-07-13T07:49:37;21.40;64.70
33863;DHT22;20158;51.436;-2.742;2023-07-13T07:52:04;21.40;64.70
33863;DHT22;20158;51.436;-2.742;2023-07-13T07:54:30;21.40;64.70
33863;DHT22;20158;51.436;-2.742;2023-07-13T07:56:56;21.40;64.70
33863;DHT22;20158;51.436;-2.742;2023-07-13T07:59:22;21.40;64.70
33863;DHT22;20158;51.436;-2.742;2023-07-13T08:01:49;21.40;64.70
33863;DHT22;20158;51.436;-2.742;2023-07-13T08:04:16;21.40;64.80
33863;DHT22;20158;51.436;-2.742;2023-07-13T08:06:42;21.40;64.90
33863;DHT22;20158;51.436;-2.742;2023-07-13T08:09:09;21.40;64.80
33863;DHT22;20158;51.436;-2.742;2023-07-13T08:11:35;21.40;64.70
33863;DHT22;20158;51.436;-2.742;2023-07-13T08:14:01;21.50;64.80
33863;DHT22;20158;51.436;-2.742;2023-07-13T08:16:27;21.50;64.60
33863;DHT22;20158;51.436;-2.742;2023-07-13T08:18:53;21.60;64.60
33863;DHT22;20158;51.436;-2.742;2023-07-13T08:21:20;21.60;64.40
33863;DHT22;20158;51.436;-2.742;2023-07-13T08:23:46;21.70;64.40
33863;DHT22;20158;51.436;-2.742;2023-07-13T08:26:12;21.80;64.40
33863;DHT22;20158;51.436;-2.742;2023-07-13T08:28:38;21.90;64.30
33863;DHT22;20158;51.436;-2.742;2023-07-13T08:31:05;21.90;64.10
33863;DHT22;20158;51.436;-2.742;2023-07-13T08:33:35;22.10;64.20
33863;DHT22;20158;51.436;-2.742;2023-07-13T08:36:01;22.20;64.10
33863;DHT22;20158;51.436;-2.742;2023-07-13T08:38:28;22.30;63.90
33863;DHT22;20158;51.436;-2.742;2023-07-13T08:40:57;22.50;64.00
33863;DHT22;20158;51.436;-2.742;2023-07-13T08:43:29;22.60;63.80
33863;DHT22;20158;51.436;-2.742;2023-07-13T08:46:37;22.80;63.90
33863;DHT22;20158;51.436;-2.742;2023-07-13T08:49:16;22.90;63.80
33863;DHT22;20158;51.436;-2.742;2023-07-13T08:51:44;23.00;63.60
33863;DHT22;20158;51.436;-2.742;2023-07-13T08:57:02;23.30;63.50
33863;DHT22;20158;51.436;-2.742;2023-07-13T08:59:34;23.40;63.40
33863;DHT22;20158;51.436;-2.742;2023-07-13T09:02:21;23.50;63.40
33863;DHT22;20158;51.436;-2.742;2023-07-13T09:05:13;23.60;63.30
33863;DHT22;20158;51.436;-2.742;2023-07-13T09:08:02;23.80;63.30
33863;DHT22;20158;51.436;-2.742;2023-07-13T09:10:46;23.90;63.20
33863;DHT22;20158;51.436;-2.742;2023-07-13T09:16:25;24.10;63.00
33863;DHT22;20158;51.436;-2.742;2023-07-13T09:18:54;24.10;63.10
33863;DHT22;20158;51.436;-2.742;2023-07-13T09:21:23;24.00;62.90
33863;DHT22;20158;51.436;-2.742;2023-07-13T09:23:54;24.10;63.00
33863;DHT22;20158;51.436;-2.742;2023-07-13T09:26:24;24.10;62.90
33863;DHT22;20158;51.436;-2.742;2023-07-13T09:29:17;24.20;62.80
33863;DHT22;20158;51.436;-2.742;2023-07-13T09:31:50;24.30;62.80
33863;DHT22;20158;51.436;-2.742;2023-07-13T09:34:19;24.40;62.70
33863;DHT22;20158;51.436;-2.742;2023-07-13T09:36:48;24.50;62.70
33863;DHT22;20158;51.436;-2.742;2023-07-13T09:39:32;24.50;62.60
33863;DHT22;20158;51.436;-2.742;2023-07-13T09:44:38;24.60;62.40
33863;DHT22;20158;51.436;-2.742;2023-07-13T09:47:27;24.70;62.50
33863;DHT22;20158;51.436;-2.742;2023-07-13T09:50:37;24.80;62.50
33863;DHT22;20158;51.436;-2.742;2023-07-13T09:52:49;24.90;62.50
33863;DHT22;20158;51.436;-2.742;2023-07-13T09:55:38;25.00;62.40
33863;DHT22;20158;51.436;-2.742;2023-07-13T09:58:16;25.10;62.20
33863;DHT22;20158;51.436;-2.742;2023-07-13T10:01:00;25.20;62.00
33863;DHT22;20158;51.436;-2.742;2023-07-13T10:03:33;25.40;61.70
33863;DHT22;20158;51.436;-2.742;2023-07-13T10:06:18;25.60;61.60
33863;DHT22;20158;51.436;-2.742;2023-07-13T10:08:46;25.90;61.20
33863;DHT22;20158;51.436;-2.742;2023-07-13T10:11:22;26.20;60.80
33863;DHT22;20158;51.436;-2.742;2023-07-13T10:13:59;26.60;60.30
33863;DHT22;20158;51.436;-2.742;2023-07-13T10:16:30;27.00;59.60
33863;DHT22;20158;51.436;-2.742;2023-07-13T10:19:09;27.30;59.10
33863;DHT22;20158;51.436;-2.742;2023-07-13T10:21:47;27.50;58.50
33863;DHT22;20158;51.436;-2.742;2023-07-13T10:24:34;27.80;58.10
33863;DHT22;20158;51.436;-2.742;2023-07-13T10:27:17;28.00;57.80
33863;DHT22;20158;51.436;-2.742;2023-07-13T10:29:50;28.10;57.50
33863;DHT22;20158;51.436;-2.742;2023-07-13T10:32:20;28.10;57.20
33863;DHT22;20158;51.436;-2.742;2023-07-13T10:34:48;28.20;57.30
33863;DHT22;20158;51.436;-2.742;2023-07-13T10:37:19;28.20;57.20
33863;DHT22;20158;51.436;-2.742;2023-07-13T10:39:47;28.20;57.10
33863;DHT22;20158;51.436;-2.742;2023-07-13T10:42:24;28.40;56.90
33863;DHT22;20158;51.436;-2.742;2023-07-13T10:44:54;28.50;56.50
33863;DHT22;20158;51.436;-2.742;2023-07-13T10:47:20;28.70;56.40
33863;DHT22;20158;51.436;-2.742;2023-07-13T10:49:53;28.80;56.00
33863;DHT22;20158;51.436;-2.742;2023-07-13T10:52:45;29.00;55.90
33863;DHT22;20158;51.436;-2.742;2023-07-13T10:58:18;29.20;55.20
33863;DHT22;20158;51.436;-2.742;2023-07-13T11:01:12;29.50;55.10
33863;DHT22;20158;51.436;-2.742;2023-07-13T11:03:53;29.70;54.70
33863;DHT22;20158;51.436;-2.742;2023-07-13T11:08:57;30.00;54.20
33863;DHT22;20158;51.436;-2.742;2023-07-13T11:18:51;30.80;52.80
33863;DHT22;20158;51.436;-2.742;2023-07-13T11:21:22;30.80;52.50
33863;DHT22;20158;51.436;-2.742;2023-07-13T11:24:12;30.90;52.30
33863;DHT22;20158;51.436;-2.742;2023-07-13T11:31:56;30.80;52.50
33863;DHT22;20158;51.436;-2.742;2023-07-13T11:34:31;30.80;52.30
33863;DHT22;20158;51.436;-2.742;2023-07-13T11:37:03;30.80;52.20
33863;DHT22;20158;51.436;-2.742;2023-07-13T11:39:36;31.00;52.20
33863;DHT22;20158;51.436;-2.742;2023-07-13T11:42:08;31.10;52.50
33863;DHT22;20158;51.436;-2.742;2023-07-13T11:44:48;31.20;51.60
33863;DHT22;20158;51.436;-2.742;2023-07-13T11:47:18;31.30;51.40
33863;DHT22;20158;51.436;-2.742;2023-07-13T11:49:50;31.50;51.30
33863;DHT22;20158;51.436;-2.742;2023-07-13T11:52:33;31.70;51.60
33863;DHT22;20158;51.436;-2.742;2023-07-13T11:55:01;31.90;50.20
33863;DHT22;20158;51.436;-2.742;2023-07-13T11:57:30;32.00;50.00
33863;DHT22;20158;51.436;-2.742;2023-07-13T11:59:58;32.20;49.60
33863;DHT22;20158;51.436;-2.742;2023-07-13T12:02:32;32.30;49.30
33863;DHT22;20158;51.436;-2.742;2023-07-13T12:05:12;32.50;49.10
33863;DHT22;20158;51.436;-2.742;2023-07-13T12:07:39;32.60;49.00
33863;DHT22;20158;51.436;-2.742;2023-07-13T12:12:58;32.90;48.50
33863;DHT22;20158;51.436;-2.742;2023-07-13T12:15:41;33.00;48.30
33863;DHT22;20158;51.436;-2.742;2023-07-13T12:18:21;33.00;48.20
33863;DHT22;20158;51.436;-2.742;2023-07-13T12:20:48;33.00;48.30
33863;DHT22;20158;51.436;-2.742;2023-07-13T12:23:26;33.00;48.10
33863;DHT22;20158;51.436;-2.742;2023-07-13T12:25:58;33.10;47.90
33863;DHT22;20158;51.436;-2.742;2023-07-13T12:28:40;33.20;47.80
33863;DHT22;20158;51.436;-2.742;2023-07-13T12:33:57;33.30;47.50
33863;DHT22;20158;51.436;-2.742;2023-07-13T12:36:24;33.30;47.60
33863;DHT22;20158;51.436;-2.742;2023-07-13T12:38:54;33.30;47.50
33863;DHT22;20158;51.436;-2.742;2023-07-13T12:41:20;33.20;47.50
33863;DHT22;20158;51.436;-2.742;2023-07-13T12:43:46;33.10;47.60
33863;DHT22;20158;51.436;-2.742;2023-07-13T12:46:28;33.00;47.60
33863;DHT22;20158;51.436;-2.742;2023-07-13T12:48:57;32.90;47.60
33863;DHT22;20158;51.436;-2.742;2023-07-13T12:51:26;32.80;48.20
33863;DHT22;20158;51.436;-2.742;2023-07-13T12:54:18;32.70;47.50
33863;DHT22;20158;51.436;-2.742;2023-07-13T12:56:53;32.70;47.50
33863;DHT22;20158;51.436;-2.742;2023-07-13T12:59:20;32.60;47.70
33863;DHT22;20158;51.436;-2.742;2023-07-13T13:01:53;32.60;48.00
33863;DHT22;20158;51.436;-2.742;2023-07-13T13:04:19;32.50;48.00
33863;DHT22;20158;51.436;-2.742;2023-07-13T13:06:47;32.50;47.90
33863;DHT22;20158;51.436;-2.742;2023-07-13T13:09:15;32.50;47.80
33863;DHT22;20158;51.436;-2.742;2023-07-13T13:11:42;32.50;47.70
33863;DHT22;20158;51.436;-2.742;2023-07-13T13:14:08;32.60;47.60
33863;DHT22;20158;51.436;-2.742;2023-07-13T13:16:48;32.50;47.50
33863;DHT22;20158;51.436;-2.742;2023-07-13T13:19:18;32.60;47.40
33863;DHT22;20158;51.436;-2.742;2023-07-13T13:21:46;32.60;47.30
33863;DHT22;20158;51.436;-2.742;2023-07-13T13:24:14;32.60;47.20
33863;DHT22;20158;51.436;-2.742;2023-07-13T13:26:44;32.70;47.10
33863;DHT22;20158;51.436;-2.742;2023-07-13T13:29:19;32.70;47.20
33863;DHT22;20158;51.436;-2.742;2023-07-13T13:31:48;32.70;47.10
33863;DHT22;20158;51.436;-2.742;2023-07-13T13:34:16;32.70;47.00
33863;DHT22;20158;51.436;-2.742;2023-07-13T13:36:47;32.80;47.00
33863;DHT22;20158;51.436;-2.742;2023-07-13T13:39:23;33.10;46.70
33863;DHT22;20158;51.436;-2.742;2023-07-13T13:41:52;33.40;46.30
33863;DHT22;20158;51.436;-2.742;2023-07-13T13:44:19;33.70;46.00
33863;DHT22;20158;51.436;-2.742;2023-07-13T13:46:48;34.00;45.70
33863;DHT22;20158;51.436;-2.742;2023-07-13T13:49:25;34.00;45.40
33863;DHT22;20158;51.436;-2.742;2023-07-13T13:51:53;34.10;45.40
33863;DHT22;20158;51.436;-2.742;2023-07-13T13:54:24;34.00;45.50
33863;DHT22;20158;51.436;-2.742;2023-07-13T13:56:52;34.00;45.40
33863;DHT22;20158;51.436;-2.742;2023-07-13T13:59:22;34.10;45.40
33863;DHT22;20158;51.436;-2.742;2023-07-13T14:01:49;34.20;45.30
33863;DHT22;20158;51.436;-2.742;2023-07-13T14:04:18;34.30;45.10
33863;DHT22;20158;51.436;-2.742;2023-07-13T14:06:50;34.40;44.80
33863;DHT22;20158;51.436;-2.742;2023-07-13T14:09:18;34.50;44.80
33863;DHT22;20158;51.436;-2.742;2023-07-13T14:11:46;34.70;44.70
33863;DHT22;20158;51.436;-2.742;2023-07-13T14:14:21;34.90;44.40
33863;DHT22;20158;51.436;-2.742;2023-07-13T14:16:49;35.10;44.20
33863;DHT22;20158;51.436;-2.742;2023-07-13T14:19:22;35.20;44.00
33863;DHT22;20158;51.436;-2.742;2023-07-13T14:21:50;35.30;43.80
33863;DHT22;20158;51.436;-2.742;2023-07-13T14:24:27;35.50;43.60
33863;DHT22;20158;51.436;-2.742;2023-07-13T14:26:53;35.60;43.50
33863;DHT22;20158;51.436;-2.742;2023-07-13T14:29:19;35.60;43.50
33863;DHT22;20158;51.436;-2.742;2023-07-13T14:31:47;35.50;43.40
33863;DHT22;20158;51.436;-2.742;2023-07-13T14:34:14;35.40;43.40
33863;DHT22;20158;51.436;-2.742;2023-07-13T14:36:48;35.50;43.50
33863;DHT22;20158;51.436;-2.742;2023-07-13T14:39:19;35.50;43.40
33863;DHT22;20158;51.436;-2.742;2023-07-13T14:41:51;35.40;43.40
33863;DHT22;20158;51.436;-2.742;2023-07-13T14:44:24;35.50;43.40
33863;DHT22;20158;51.436;-2.742;2023-07-13T14:46:51;35.60;43.30
33863;DHT22;20158;51.436;-2.742;2023-07-13T14:51:52;35.80;43.10
33863;DHT22;20158;51.436;-2.742;2023-07-13T14:54:18;35.80;43.00
33863;DHT22;20158;51.436;-2.742;2023-07-13T14:56:44;35.80;43.00
33863;DHT22;20158;51.436;-2.742;2023-07-13T14:59:11;35.90;42.90
33863;DHT22;20158;51.436;-2.742;2023-07-13T15:01:39;35.80;42.90
33863;DHT22;20158;51.436;-2.742;2023-07-13T15:04:06;35.80;42.90
33863;DHT22;20158;51.436;-2.742;2023-07-13T15:06:54;35.80;42.90
33863;DHT22;20158;51.436;-2.742;2023-07-13T15:09:21;35.90;42.70
33863;DHT22;20158;51.436;-2.742;2023-07-13T15:11:47;35.90;42.70
33863;DHT22;20158;51.436;-2.742;2023-07-13T15:14:12;36.00;42.60
33863;DHT22;20158;51.436;-2.742;2023-07-13T15:16:39;36.20;42.50
33863;DHT22;20158;51.436;-2.742;2023-07-13T15:19:04;36.20;42.30
33863;DHT22;20158;51.436;-2.742;2023-07-13T15:21:31;36.40;42.30
33863;DHT22;20158;51.436;-2.742;2023-07-13T15:24:00;36.50;42.20
33863;DHT22;20158;51.436;-2.742;2023-07-13T15:26:26;36.60;42.00
33863;DHT22;20158;51.436;-2.742;2023-07-13T15:28:52;36.70;41.90
33863;DHT22;20158;51.436;-2.742;2023-07-13T15:31:24;36.80;41.70
33863;DHT22;20158;51.436;-2.742;2023-07-13T15:33:51;36.80;41.50
33863;DHT22;20158;51.436;-2.742;2023-07-13T15:36:21;36.90;41.40
33863;DHT22;20158;51.436;-2.742;2023-07-13T15:38:48;37.00;41.30
33863;DHT22;20158;51.436;-2.742;2023-07-13T15:41:22;37.10;41.30
33863;DHT22;20158;51.436;-2.742;2023-07-13T15:43:51;37.10;41.10
33863;DHT22;20158;51.436;-2.742;2023-07-13T15:46:21;37.20;41.00
33863;DHT22;20158;51.436;-2.742;2023-07-13T15:48:48;37.20;40.90
33863;DHT22;20158;51.436;-2.742;2023-07-13T15:51:23;37.30;40.80
33863;DHT22;20158;51.436;-2.742;2023-07-13T15:53:49;37.40;40.70
33863;DHT22;20158;51.436;-2.742;2023-07-13T15:56:26;37.40;40.60
33863;DHT22;20158;51.436;-2.742;2023-07-13T15:58:53;37.40;40.40
33863;DHT22;20158;51.436;-2.742;2023-07-13T16:01:19;37.50;40.50
33863;DHT22;20158;51.436;-2.742;2023-07-13T16:03:46;37.60;40.40
33863;DHT22;20158;51.436;-2.742;2023-07-13T16:06:16;37.70;40.30
33863;DHT22;20158;51.436;-2.742;2023-07-13T16:08:43;37.70;40.20
33863;DHT22;20158;51.436;-2.742;2023-07-13T16:11:16;37.80;40.10
33863;DHT22;20158;51.436;-2.742;2023-07-13T16:13:44;37.80;40.00
33863;DHT22;20158;51.436;-2.742;2023-07-13T16:16:12;37.90;40.00